• Join FlightAware (Why Join?)
  • Login
  • US Flag 
03:33PM EST


 

Airport Tracker/Info


-or-


 

Live Flight TrackerFlight Track Log ✈ JUS327 ✈ 09-Apr-2013 ✈ KTUS - KYIP

Flight Track Log - Related Links

Times and Time Zones

All times are in EDT time to prevent confusion due to time zone crossing. See the JUS327 flight status page for this flight to view local times or setup timezone preferences in your user account.

Time Position Orientation Groundspeed Altitude Reporting Facility
EDT Latitude Longitude Course Direction KTS MPH feet Rate Location/Type
02:45PM 32.1233 -110.9494 313° West 161 185 3,500  Level Albuquerque Center
02:46PM 32.1689 -111.0078 313° West 220 253 5,200 1,620 Climbing Albuquerque Center
02:47PM 32.2006 -110.9936 21° North 235 270 6,400 1,860 Climbing Albuquerque Center
02:47PM 32.2225 -110.9631 50° Northeast 257 296 7,100 2,040 Climbing Albuquerque Center
02:48PM 32.2481 -110.9258 51° Northeast 261 300 8,500 2,640 Climbing Albuquerque Center
02:48PM 32.2622 -110.8717 73° East 288 331 10,100 2,280 Climbing Albuquerque Center
02:49PM 32.2700 -110.8317 77° East 299 344 10,900 1,500 Climbing Albuquerque Center
02:50PM 32.2869 -110.7261 79° East 323 372 12,400 2,220 Climbing Albuquerque Center
02:51PM 32.3131 -110.6136 75° East 345 397 15,500 2,580 Climbing Albuquerque Center
02:52PM 32.3497 -110.5067 68° East 349 402 17,700 2,280 Climbing Albuquerque Center
02:53PM 32.3347 -110.3678 97° East 361 415 20,200 2,220 Climbing Albuquerque Center
02:54PM 32.3161 -110.2494 101° East 371 427 22,400 1,800 Climbing Albuquerque Center
02:55PM 32.3108 -110.1244 93° East 381 438 23,900 1,260 Climbing Albuquerque Center
02:56PM 32.3558 -110.0094 65° Northeast 406 467 25,000 900 Climbing Albuquerque Center
02:57PM 32.4308 -109.8997 51° Northeast 427 491 25,800 420 Climbing Albuquerque Center
02:58PM 32.5108 -109.7597 56° Northeast 432 497 25,900 300 Climbing Albuquerque Center
02:59PM 32.5886 -109.6450 51° Northeast 444 511 26,500 780 Climbing Albuquerque Center
03:00PM 32.6636 -109.5194 55° Northeast 463 533 27,500 960 Climbing Albuquerque Center
03:01PM 32.7467 -109.3964 51° Northeast 476 548 28,600 900 Climbing Albuquerque Center
03:02PM 32.8300 -109.2697 52° Northeast 486 559 29,400 900 Climbing Albuquerque Center
03:03PM 32.9272 -109.1114 54° Northeast 495 570 30,500 840 Climbing Albuquerque Center
03:04PM 33.0075 -108.9961 50° Northeast 500 575 31,200 720 Climbing Albuquerque Center
03:05PM 33.0858 -108.8589 56° Northeast 499 574 32,000 720 Climbing Albuquerque Center
03:06PM 33.1867 -108.7083 51° Northeast 500 575 32,700 600 Climbing Albuquerque Center
03:07PM 33.2675 -108.5739 54° Northeast 503 579 33,300 660 Climbing Albuquerque Center
03:08PM 33.3486 -108.4372 55° Northeast 505 581 34,100 720 Climbing Albuquerque Center
03:09PM 33.4367 -108.3089 51° Northeast 505 581 34,800 360 Climbing Albuquerque Center
03:10PM 33.5136 -108.1711 56° Northeast 502 578 34,900  Climbing Albuquerque Center
03:11PM 33.6064 -108.0303 52° Northeast 500 575 34,800  Descending Albuquerque Center
03:12PM 33.6900 -107.9000 52° Northeast 494 568 34,900  Climbing Albuquerque Center
03:13PM 33.7656 -107.7589 57° Northeast 495 570 34,900  Level Albuquerque Center
03:14PM 33.8525 -107.6317 51° Northeast 493 567 34,900  Level Albuquerque Center
03:15PM 33.9317 -107.4986 54° Northeast 489 563 34,900  Level Albuquerque Center
03:16PM 34.0250 -107.3411 54° Northeast 480 552 34,900  Level Albuquerque Center
03:18PM 34.1106 -107.2153 51° Northeast 486 559 34,900  Level Albuquerque Center
03:19PM 34.1853 -107.0722 58° Northeast 494 568 34,900  Level Albuquerque Center
03:20PM 34.2664 -106.9378 54° Northeast 496 571 34,900  Level Albuquerque Center
03:21PM 34.3631 -106.7867 52° Northeast 494 568 34,900  Level Albuquerque Center
03:22PM 34.4219 -106.6339 65° Northeast 497 572 34,900  Level Albuquerque Center
03:23PM 34.4769 -106.5092 62° Northeast 499 574 34,900  Level Albuquerque Center
03:24PM 34.5475 -106.3678 59° Northeast 493 567 34,900  Level Albuquerque Center
03:25PM 34.6186 -106.1856 65° Northeast 504 580 34,900  Level Albuquerque Center
03:26PM 34.6839 -106.0350 62° Northeast 500 575 34,900  Level Albuquerque Center
03:27PM 34.7528 -105.8850 61° Northeast 504 580 34,900  Level Albuquerque Center
03:28PM 34.8153 -105.7297 64° Northeast 507 583 35,000  Climbing Albuquerque Center
03:29PM 34.8864 -105.5794 60° Northeast 509 586 34,900  Descending Albuquerque Center
03:30PM 34.9494 -105.4228 64° Northeast 510 587 35,000  Climbing Albuquerque Center
03:31PM 35.0169 -105.2711 61° Northeast 505 581 34,900 -60 Descending Albuquerque Center
03:32PM 35.0919 -105.0881 63° Northeast 510 587 34,900  Level Albuquerque Center
03:33PM 35.1600 -104.9350 61° Northeast 508 585 34,900  Level Albuquerque Center
03:34PM 35.2419 -104.7875 56° Northeast 514 592 34,900  Level Albuquerque Center
03:35PM 35.3133 -104.6328 60° Northeast 515 593 35,000  Climbing Albuquerque Center
03:36PM 35.3917 -104.4822 57° Northeast 515 593 34,900 -60 Descending Albuquerque Center
03:37PM 35.4669 -104.3294 59° Northeast 513 590 34,900  Level Albuquerque Center
03:38PM 35.5425 -104.1733 59° Northeast 518 596 34,900  Level Albuquerque Center
03:39PM 35.6233 -104.0192 57° Northeast 525 604 35,000  Climbing Albuquerque Center
03:40PM 35.6931 -103.8556 62° Northeast 530 610 34,900 -60 Descending Albuquerque Center
03:41PM 35.7758 -103.6986 57° Northeast 538 619 34,900  Level Albuquerque Center
03:42PM 35.8533 -103.5417 59° Northeast 534 615 35,000  Climbing Albuquerque Center
03:43PM 35.9267 -103.3794 61° Northeast 534 615 34,900 -60 Descending Albuquerque Center
03:44PM 36.0053 -103.2206 59° Northeast 537 618 34,900  Level Albuquerque Center
03:45PM 36.0458 -103.0464 74° East 522 601 34,900  Level Albuquerque Center
03:46PM 36.0972 -102.8731 70° East 522 601 34,900  Level Albuquerque Center
03:47PM 36.1631 -102.7064 64° Northeast 534 615 34,900  Level Albuquerque Center
03:48PM 36.2264 -102.5039 69° East 528 608 34,900  Level Albuquerque Center
03:49PM 36.2842 -102.3389 66° East 524 603 34,900  Level Albuquerque Center
03:50PM 36.3378 -102.1725 68° East 521 600 34,900  Level Albuquerque Center
03:51PM 36.3950 -102.0064 67° East 522 601 34,900  Level Albuquerque Center
03:52PM 36.4456 -101.8417 69° East 514 592 34,900  Level Albuquerque Center
03:53PM 36.4931 -101.6739 71° East 511 588 34,900  Level Albuquerque Center
03:54PM 36.5014 -101.4969 87° East 483 556 34,900  Level Albuquerque Center
03:56PM 36.4944 -101.3436 93° East 470 541 34,900  Level Albuquerque Center
03:57PM 36.5106 -101.1581 84° East 482 555 34,900  Level Albuquerque Center
03:57PM 36.5222 -101.0508 82° East 485 558 34,900  Level Kansas City Center
03:58PM 36.5375 -100.8633 84° East 489 563 34,900  Level Kansas City Center
03:59PM 36.5481 -100.7022 85° East 489 563 34,900  Level Kansas City Center
04:00PM 36.5622 -100.5114 85° East 495 570 34,900  Level Kansas City Center
04:01PM 36.5733 -100.3333 86° East 496 571 34,900  Level Kansas City Center
04:02PM 36.5858 -100.1606 85° East 497 572 34,900  Level Kansas City Center
04:03PM 36.5939 -99.9886 87° East 497 572 34,900  Level Kansas City Center
04:05PM 36.6050 -99.8186 85° East 492 566 34,900  Level Kansas City Center
04:06PM 36.6161 -99.6497 85° East 488 562 34,900  Level Kansas City Center
04:07PM 36.6272 -99.4792 85° East 490 564 34,900  Level Kansas City Center
04:08PM 36.6378 -99.3086 86° East 489 563 34,900  Level Kansas City Center
04:09PM 36.6475 -99.1386 86° East 490 564 34,900  Level Kansas City Center
04:10PM 36.6589 -98.9661 85° East 493 567 34,900  Level Kansas City Center
04:11PM 36.6689 -98.7653 86° East 485 558 34,900  Level Kansas City Center
04:12PM 36.6775 -98.6006 86° East 478 550 34,900  Level Kansas City Center
04:13PM 36.6875 -98.4361 86° East 475 547 34,900  Level Kansas City Center
04:14PM 36.6944 -98.2714 87° East 473 544 34,900  Level Kansas City Center
04:15PM 36.7011 -98.1056 87° East 475 547 34,900  Level Kansas City Center
04:16PM 36.7117 -97.9400 85° East 476 548 34,900  Level Kansas City Center
04:17PM 36.7169 -97.7733 88° East 479 551 34,900  Level Kansas City Center
04:18PM 36.7233 -97.6050 87° East 481 554 35,000  Climbing Kansas City Center
04:19PM 36.7322 -97.4353 86° East 486 559 34,900 -60 Descending Kansas City Center
04:20PM 36.7428 -97.2253 86° East 493 567 34,900  Level Kansas City Center
04:21PM 36.7644 -97.0856 79° East 500 575 35,000  Climbing Kansas City Center
04:22PM 36.8853 -96.9628 39° Northeast 512 589 34,900 -60 Descending Kansas City Center
04:23PM 36.9753 -96.8328 49° Northeast 502 578 34,900  Level Kansas City Center
04:24PM 37.0464 -96.6631 62° Northeast 498 573 35,000  Climbing Kansas City Center
04:25PM 37.1311 -96.5203 53° Northeast 502 578 34,900 -60 Descending Kansas City Center
04:26PM 37.2231 -96.3864 49° Northeast 503 579 34,900  Level Kansas City Center
04:27PM 37.3042 -96.2414 55° Northeast 505 581 34,900  Level Kansas City Center
04:28PM 37.3906 -96.1036 52° Northeast 500 575 34,900  Level Kansas City Center
04:29PM 37.4767 -95.9653 52° Northeast 500 575 34,900  Level Kansas City Center
04:30PM 37.5739 -95.7903 55° Northeast 501 577 34,900  Level Kansas City Center
04:31PM 37.6631 -95.6544 50° Northeast 501 577 34,900  Level Kansas City Center
04:32PM 37.7419 -95.5094 55° Northeast 498 573 34,900  Level Kansas City Center
04:33PM 37.8267 -95.3664 53° Northeast 504 580 34,900  Level Kansas City Center
04:34PM 37.9161 -95.2267 51° Northeast 508 585 34,900  Level Kansas City Center
04:36PM 38.0000 -95.0658 56° Northeast 501 577 34,900  Level Kansas City Center
04:37PM 38.0836 -94.9328 51° Northeast 505 581 34,900  Level Kansas City Center
04:38PM 38.1767 -94.7719 54° Northeast 506 582 34,900  Level Kansas City Center
04:39PM 38.2506 -94.6331 56° Northeast 502 578 34,900  Level Kansas City Center
04:40PM 38.3494 -94.4775 51° Northeast 504 580 34,900  Level Kansas City Center
04:41PM 38.4225 -94.3375 56° Northeast 498 573 34,900  Level Kansas City Center
04:42PM 38.5150 -94.1794 53° Northeast 501 577 34,900  Level Kansas City Center
04:43PM 38.5942 -94.0433 53° Northeast 500 575 34,900  Level Kansas City Center
04:44PM 38.6792 -93.8781 57° Northeast 500 575 34,900  Level Kansas City Center
04:45PM 38.7614 -93.7469 51° Northeast 500 575 34,900  Level Kansas City Center
04:46PM 38.8406 -93.5981 56° Northeast 504 580 34,900  Level Kansas City Center
04:47PM 38.9375 -93.4225 55° Northeast 501 577 34,900  Level Kansas City Center
04:48PM 39.0200 -93.2839 53° Northeast 505 581 34,900  Level Kansas City Center
04:49PM 39.0936 -93.1325 58° Northeast 502 578 34,900  Level Kansas City Center
04:50PM 39.1769 -92.9911 53° Northeast 502 578 34,900  Level Kansas City Center
04:51PM 39.2567 -92.8489 54° Northeast 497 572 34,900  Level Kansas City Center
04:52PM 39.3453 -92.6711 57° Northeast 495 570 34,900  Level Kansas City Center
04:53PM 39.4289 -92.5333 52° Northeast 495 570 34,900  Level Kansas City Center
04:54PM 39.5014 -92.3861 57° Northeast 491 565 34,900  Level Kansas City Center
04:55PM 39.5786 -92.2422 55° Northeast 493 567 34,900  Level Kansas City Center
04:56PM 39.6731 -92.0708 54° Northeast 493 567 34,900  Level Kansas City Center
04:57PM 39.7461 -91.9203 58° Northeast 497 572 34,900  Level Kansas City Center
04:58PM 39.8272 -91.7794 53° Northeast 495 570 34,900  Level Kansas City Center
04:59PM 39.9008 -91.6294 57° Northeast 499 574 34,900  Level Kansas City Center
05:00PM 39.9756 -91.4844 56° Northeast 492 566 34,900  Level Kansas City Center
05:01PM 40.0717 -91.3131 54° Northeast 492 566 34,900  Level Kansas City Center
05:02PM 40.1400 -91.1617 59° Northeast 491 565 34,900  Level Kansas City Center
05:03PM 40.2175 -91.0181 55° Northeast 488 562 34,900  Level Kansas City Center
05:04PM 40.2994 -90.8617 55° Northeast 488 562 34,900  Level Chicago Center
05:05PM 40.3719 -90.7119 58° Northeast 488 562 34,900  Level Chicago Center
05:06PM 40.4525 -90.5700 53° Northeast 484 557 34,900  Level Chicago Center
05:08PM 40.5219 -90.4181 59° Northeast 485 558 34,900  Level Chicago Center
05:09PM 40.6136 -90.2428 55° Northeast 483 556 34,900  Level Chicago Center
05:10PM 40.6864 -90.1053 55° Northeast 482 555 34,900  Level Chicago Center
05:11PM 40.7544 -89.9519 60° Northeast 485 558 34,900  Level Chicago Center
05:12PM 40.8328 -89.8047 55° Northeast 488 562 34,900  Level Chicago Center
05:13PM 40.9169 -89.6242 58° Northeast 491 565 34,900  Level Chicago Center
05:14PM 40.9867 -89.4792 57° Northeast 489 563 34,900  Level Chicago Center
05:15PM 41.0658 -89.3319 54° Northeast 493 567 34,900  Level Chicago Center
05:16PM 41.1369 -89.1708 60° Northeast 494 568 34,900  Level Chicago Center
05:17PM 41.2119 -89.0208 56° Northeast 491 565 34,900  Level Chicago Center
05:18PM 41.2694 -88.8567 65° Northeast 505 581 34,900  Level Chicago Center
05:19PM 41.3181 -88.6522 72° East 486 559 34,900  Level Chicago Center
05:20PM 41.3481 -88.4747 77° East 493 567 34,900  Level Chicago Center
05:21PM 41.3892 -88.3017 72° East 494 568 34,900  Level Chicago Center
05:22PM 41.4225 -88.1158 76° East 511 588 34,900  Level Chicago Center
05:23PM 41.4639 -87.9450 72° East 496 571 34,900  Level Chicago Center
05:24PM 41.4989 -87.7528 76° East 495 570 34,900  Level Chicago Center
05:25PM 41.5344 -87.5786 75° East 490 564 34,900 -480 Level Chicago Center
05:26PM 41.5678 -87.4025 76° East 492 566 34,000 -900 Descending Chicago Center
05:27PM 41.6139 -87.1886 74° East 503 579 33,100 -540 Descending Chicago Center
05:28PM 41.6856 -87.0372 58° Northeast 493 567 33,000 -360 Descending Chicago Center
05:29PM 41.7567 -86.8844 58° Northeast 489 563 32,400 -1,080 Descending Chicago Center
05:30PM 41.7997 -86.7131 71° East 498 573 30,800 -1,380 Descending Chicago Center
05:31PM 41.8103 -86.5319 85° East 497 572 29,600 -1,440 Descending Chicago Center
05:32PM 41.8361 -86.3553 79° East 487 560 27,900 -1,680 Descending Chicago Center
05:33PM 41.8661 -86.1431 79° East 482 555 26,200 -1,500 Descending Chicago Center
05:34PM 41.8917 -85.9692 79° East 476 548 24,800 -1,260 Descending Chicago Center
05:35PM 41.9181 -85.7983 78° East 467 537 23,700 -1,200 Descending Chicago Center
05:36PM 41.9414 -85.6297 79° East 458 527 22,400 -1,260 Descending Chicago Center
05:37PM 41.9658 -85.4597 79° East 459 528 21,200 -1,200 Descending Chicago Center
05:38PM 41.9903 -85.2969 79° East 465 535 20,000 -1,200 Descending Cleveland Center
05:39PM 42.0100 -85.1167 82° East 460 529 18,900 -1,200 Descending Cleveland Center
05:40PM 42.0372 -84.9533 77° East 449 517 17,700 -1,140 Descending Cleveland Center
05:41PM 42.0578 -84.7953 80° East 443 510 16,700 -1,380 Descending Cleveland Center
05:42PM 42.0614 -84.6361 88° East 438 504 15,000 -2,160 Descending Cleveland Center
05:43PM 42.0372 -84.4919 103° East 400 460 12,400 -2,220 Descending Cleveland Center
05:44PM 42.0147 -84.3564 103° East 390 449 10,600 -1,560 Descending Cleveland Center
05:45PM 42.0019 -84.2997 107° East 336 387 10,200 -600 Descending Cleveland Center
05:45PM 41.9911 -84.2461 105° East 361 415 10,000 -120 Descending Cleveland Center
05:46PM 41.9844 -84.1925 99° East 326 375 10,100 60 Climbing Cleveland Center
05:46PM 41.9844 -84.1256 90° East 333 383 10,100  Level Cleveland Center
05:47PM 42.0167 -84.0992 31° Northeast 322 371 10,100 -240 Level Cleveland Center
05:47PM 42.0517 -84.0453 49° Northeast 282 325 9,900 -1,140 Descending Cleveland Center
05:48PM 42.0775 -84.0158 40° Northeast 310 357 9,000 -2,040 Descending Cleveland Center
05:48PM 42.1122 -83.9675 46° Northeast 287 330 7,900 -1,920 Descending Cleveland Center
05:49PM 42.1381 -83.9436 34° Northeast 285 328 7,100 -1,920 Descending Cleveland Center
05:49PM 42.1744 -83.9033 39° Northeast 280 322 6,000 -1,920 Descending Cleveland Center
05:50PM 42.1986 -83.8628 51° Northeast 276 318 5,000 -1,800 Descending Cleveland Center
05:50PM 42.2103 -83.8183 70° East 268 308 4,200 -1,680 Descending Cleveland Center
05:51PM 42.2264 -83.7714 65° Northeast 252 290 3,300 -1,140 Descending Cleveland Center
05:52PM 42.2533 -83.6944 65° Northeast 212 244 2,600 -420 Descending Cleveland Center
05:53PM 42.2486 -83.6381 96° East 162 186 2,500 -360 Descending Cleveland Center
05:54PM 42.2294 -83.5811 114° Southeast 153 176 1,900 -420 Descending Cleveland Center
05:55PM 42.2008 -83.5517 143° Southeast 137 158 1,700 -240 Descending Cleveland Center
05:56PM 42.2172 -83.5692 322° Northwest 147 169 1,500 -240 Descending Cleveland Center